sensor_id;sensor_type;location;lat;lon;timestamp;temperature;humidity
3055;DHT22;1537;52.018;8.542;2024-02-04T00:02:04;9.10;99.90
3055;DHT22;1537;52.018;8.542;2024-02-04T00:05:29;9.10;99.90
3055;DHT22;1537;52.018;8.542;2024-02-04T00:08:53;9.00;99.90
3055;DHT22;1537;52.018;8.542;2024-02-04T00:12:19;8.90;99.90
3055;DHT22;1537;52.018;8.542;2024-02-04T00:15:42;9.00;99.90
3055;DHT22;1537;52.018;8.542;2024-02-04T00:19:06;8.90;99.90
3055;DHT22;1537;52.018;8.542;2024-02-04T00:22:31;8.90;99.90
3055;DHT22;1537;52.018;8.542;2024-02-04T00:25:56;8.90;99.90
3055;DHT22;1537;52.018;8.542;2024-02-04T00:29:22;9.00;99.90
3055;DHT22;1537;52.018;8.542;2024-02-04T00:32:45;9.00;99.90
3055;DHT22;1537;52.018;8.542;2024-02-04T00:36:12;8.90;99.90
3055;DHT22;1537;52.018;8.542;2024-02-04T00:39:36;8.90;99.90
3055;DHT22;1537;52.018;8.542;2024-02-04T00:43:00;8.90;99.90
3055;DHT22;1537;52.018;8.542;2024-02-04T00:46:28;8.90;99.90
3055;DHT22;1537;52.018;8.542;2024-02-04T00:49:52;8.90;99.90
3055;DHT22;1537;52.018;8.542;2024-02-04T00:53:19;8.90;99.90
3055;DHT22;1537;52.018;8.542;2024-02-04T00:56:42;9.00;99.90
3055;DHT22;1537;52.018;8.542;2024-02-04T01:00:08;9.00;99.90
3055;DHT22;1537;52.018;8.542;2024-02-04T01:03:42;9.00;99.90
3055;DHT22;1537;52.018;8.542;2024-02-04T01:07:08;9.00;99.90
3055;DHT22;1537;52.018;8.542;2024-02-04T01:10:33;9.10;99.90
3055;DHT22;1537;52.018;8.542;2024-02-04T01:13:58;9.10;99.90
3055;DHT22;1537;52.018;8.542;2024-02-04T01:17:23;9.10;99.90
3055;DHT22;1537;52.018;8.542;2024-02-04T01:20:49;9.10;99.90
3055;DHT22;1537;52.018;8.542;2024-02-04T01:24:15;9.10;99.90
3055;DHT22;1537;52.018;8.542;2024-02-04T01:27:39;9.10;99.90
3055;DHT22;1537;52.018;8.542;2024-02-04T01:31:03;9.10;99.90
3055;DHT22;1537;52.018;8.542;2024-02-04T01:34:27;9.10;99.90
3055;DHT22;1537;52.018;8.542;2024-02-04T01:37:53;9.10;99.90
3055;DHT22;1537;52.018;8.542;2024-02-04T01:41:19;9.10;99.90
3055;DHT22;1537;52.018;8.542;2024-02-04T01:44:43;9.10;99.90
3055;DHT22;1537;52.018;8.542;2024-02-04T01:48:07;9.10;99.90
3055;DHT22;1537;52.018;8.542;2024-02-04T01:51:31;9.10;99.90
3055;DHT22;1537;52.018;8.542;2024-02-04T01:54:57;9.10;99.90
3055;DHT22;1537;52.018;8.542;2024-02-04T01:58:22;9.10;99.90
3055;DHT22;1537;52.018;8.542;2024-02-04T02:01:47;9.10;99.90
3055;DHT22;1537;52.018;8.542;2024-02-04T02:05:11;9.20;99.90
3055;DHT22;1537;52.018;8.542;2024-02-04T02:08:36;9.20;99.90
3055;DHT22;1537;52.018;8.542;2024-02-04T02:12:08;9.30;99.90
3055;DHT22;1537;52.018;8.542;2024-02-04T02:15:37;9.30;99.90
3055;DHT22;1537;52.018;8.542;2024-02-04T02:19:15;9.40;99.90
3055;DHT22;1537;52.018;8.542;2024-02-04T02:22:49;9.50;99.90
3055;DHT22;1537;52.018;8.542;2024-02-04T02:26:15;9.50;99.90
3055;DHT22;1537;52.018;8.542;2024-02-04T02:29:39;9.60;99.90
3055;DHT22;1537;52.018;8.542;2024-02-04T02:33:05;9.60;99.90
3055;DHT22;1537;52.018;8.542;2024-02-04T02:36:40;9.70;99.90
3055;DHT22;1537;52.018;8.542;2024-02-04T02:40:09;9.60;99.90
3055;DHT22;1537;52.018;8.542;2024-02-04T02:43:39;9.70;99.90
3055;DHT22;1537;52.018;8.542;2024-02-04T02:47:05;9.70;99.90
3055;DHT22;1537;52.018;8.542;2024-02-04T02:50:30;9.70;99.90
3055;DHT22;1537;52.018;8.542;2024-02-04T02:53:53;9.70;99.90
3055;DHT22;1537;52.018;8.542;2024-02-04T02:57:18;9.70;99.90
3055;DHT22;1537;52.018;8.542;2024-02-04T03:00:44;9.70;99.90
3055;DHT22;1537;52.018;8.542;2024-02-04T03:04:09;9.70;99.90
3055;DHT22;1537;52.018;8.542;2024-02-04T03:07:33;9.70;99.90
3055;DHT22;1537;52.018;8.542;2024-02-04T03:10:57;9.60;99.90
3055;DHT22;1537;52.018;8.542;2024-02-04T03:14:22;9.60;99.90
3055;DHT22;1537;52.018;8.542;2024-02-04T03:17:47;9.50;99.90
3055;DHT22;1537;52.018;8.542;2024-02-04T03:21:12;9.50;99.90
3055;DHT22;1537;52.018;8.542;2024-02-04T03:24:36;9.40;99.90
3055;DHT22;1537;52.018;8.542;2024-02-04T03:28:02;9.40;99.90
3055;DHT22;1537;52.018;8.542;2024-02-04T03:31:26;9.40;99.90
3055;DHT22;1537;52.018;8.542;2024-02-04T03:34:51;9.30;99.90
3055;DHT22;1537;52.018;8.542;2024-02-04T03:38:15;9.30;99.90
3055;DHT22;1537;52.018;8.542;2024-02-04T03:41:41;9.30;99.90
3055;DHT22;1537;52.018;8.542;2024-02-04T03:45:06;9.30;99.90
3055;DHT22;1537;52.018;8.542;2024-02-04T03:48:30;9.30;99.90
3055;DHT22;1537;52.018;8.542;2024-02-04T03:51:58;9.30;99.90
3055;DHT22;1537;52.018;8.542;2024-02-04T03:55:22;9.20;99.90
3055;DHT22;1537;52.018;8.542;2024-02-04T03:58:45;9.20;99.90
3055;DHT22;1537;52.018;8.542;2024-02-04T04:02:09;9.20;99.90
3055;DHT22;1537;52.018;8.542;2024-02-04T04:05:33;9.20;99.90
3055;DHT22;1537;52.018;8.542;2024-02-04T04:09:00;9.20;99.90
3055;DHT22;1537;52.018;8.542;2024-02-04T04:12:23;9.30;99.90
3055;DHT22;1537;52.018;8.542;2024-02-04T04:15:47;9.30;99.90
3055;DHT22;1537;52.018;8.542;2024-02-04T04:19:11;9.30;99.90
3055;DHT22;1537;52.018;8.542;2024-02-04T04:22:38;9.30;99.90
3055;DHT22;1537;52.018;8.542;2024-02-04T04:26:04;9.30;99.90
3055;DHT22;1537;52.018;8.542;2024-02-04T04:29:28;9.20;99.90
3055;DHT22;1537;52.018;8.542;2024-02-04T04:32:53;9.20;99.90
3055;DHT22;1537;52.018;8.542;2024-02-04T04:36:16;9.20;99.90
3055;DHT22;1537;52.018;8.542;2024-02-04T04:39:42;9.20;99.90
3055;DHT22;1537;52.018;8.542;2024-02-04T04:43:07;9.10;99.90
3055;DHT22;1537;52.018;8.542;2024-02-04T04:46:30;9.20;99.90
3055;DHT22;1537;52.018;8.542;2024-02-04T04:49:54;9.20;99.90
3055;DHT22;1537;52.018;8.542;2024-02-04T04:53:19;9.20;99.90
3055;DHT22;1537;52.018;8.542;2024-02-04T04:56:42;9.20;99.90
3055;DHT22;1537;52.018;8.542;2024-02-04T05:00:10;9.20;99.90
3055;DHT22;1537;52.018;8.542;2024-02-04T05:03:35;9.20;99.90
3055;DHT22;1537;52.018;8.542;2024-02-04T05:07:00;9.30;99.90
3055;DHT22;1537;52.018;8.542;2024-02-04T05:10:24;9.30;99.90
3055;DHT22;1537;52.018;8.542;2024-02-04T05:13:48;9.30;99.90
3055;DHT22;1537;52.018;8.542;2024-02-04T05:17:13;9.30;99.90
3055;DHT22;1537;52.018;8.542;2024-02-04T05:20:37;9.30;99.90
3055;DHT22;1537;52.018;8.542;2024-02-04T05:24:01;9.30;99.90
3055;DHT22;1537;52.018;8.542;2024-02-04T05:27:25;9.30;99.90
3055;DHT22;1537;52.018;8.542;2024-02-04T05:30:49;9.30;99.90
3055;DHT22;1537;52.018;8.542;2024-02-04T05:34:14;9.40;99.90
3055;DHT22;1537;52.018;8.542;2024-02-04T05:37:39;9.40;99.90
3055;DHT22;1537;52.018;8.542;2024-02-04T05:41:03;9.40;99.90
3055;DHT22;1537;52.018;8.542;2024-02-04T05:44:30;9.40;99.90
3055;DHT22;1537;52.018;8.542;2024-02-04T05:47:54;9.30;99.90
3055;DHT22;1537;52.018;8.542;2024-02-04T05:51:19;9.30;99.90
3055;DHT22;1537;52.018;8.542;2024-02-04T05:54:47;9.30;99.90
3055;DHT22;1537;52.018;8.542;2024-02-04T05:58:12;9.30;99.90
3055;DHT22;1537;52.018;8.542;2024-02-04T06:01:37;9.30;99.90
3055;DHT22;1537;52.018;8.542;2024-02-04T06:05:01;9.30;99.90
3055;DHT22;1537;52.018;8.542;2024-02-04T06:08:26;9.30;99.90
3055;DHT22;1537;52.018;8.542;2024-02-04T06:11:50;9.30;99.90
3055;DHT22;1537;52.018;8.542;2024-02-04T06:15:14;9.30;99.90
3055;DHT22;1537;52.018;8.542;2024-02-04T06:18:39;9.30;99.90
3055;DHT22;1537;52.018;8.542;2024-02-04T06:22:04;9.30;99.90
3055;DHT22;1537;52.018;8.542;2024-02-04T06:25:29;9.30;99.90
3055;DHT22;1537;52.018;8.542;2024-02-04T06:28:53;9.30;99.90
3055;DHT22;1537;52.018;8.542;2024-02-04T06:32:17;9.20;99.90
3055;DHT22;1537;52.018;8.542;2024-02-04T06:35:43;9.20;99.90
3055;DHT22;1537;52.018;8.542;2024-02-04T06:39:07;9.30;99.90
3055;DHT22;1537;52.018;8.542;2024-02-04T06:42:32;9.20;99.90
3055;DHT22;1537;52.018;8.542;2024-02-04T06:45:56;9.30;99.90
3055;DHT22;1537;52.018;8.542;2024-02-04T06:49:20;9.30;99.90
3055;DHT22;1537;52.018;8.542;2024-02-04T06:52:44;9.20;99.90
3055;DHT22;1537;52.018;8.542;2024-02-04T06:56:08;9.30;99.90
3055;DHT22;1537;52.018;8.542;2024-02-04T06:59:33;9.30;99.90
3055;DHT22;1537;52.018;8.542;2024-02-04T07:02:59;9.30;99.90
3055;DHT22;1537;52.018;8.542;2024-02-04T07:06:24;9.20;99.90
3055;DHT22;1537;52.018;8.542;2024-02-04T07:09:50;9.30;99.90
3055;DHT22;1537;52.018;8.542;2024-02-04T07:13:14;9.30;99.90
3055;DHT22;1537;52.018;8.542;2024-02-04T07:16:39;9.30;99.90
3055;DHT22;1537;52.018;8.542;2024-02-04T07:20:03;9.30;99.90
3055;DHT22;1537;52.018;8.542;2024-02-04T07:23:28;9.30;99.90
3055;DHT22;1537;52.018;8.542;2024-02-04T07:26:54;9.30;99.90
3055;DHT22;1537;52.018;8.542;2024-02-04T07:30:18;9.30;99.90
3055;DHT22;1537;52.018;8.542;2024-02-04T07:33:44;9.30;99.90
3055;DHT22;1537;52.018;8.542;2024-02-04T07:37:09;9.10;99.90
3055;DHT22;1537;52.018;8.542;2024-02-04T07:40:33;9.10;99.90
3055;DHT22;1537;52.018;8.542;2024-02-04T07:43:57;9.00;99.90
3055;DHT22;1537;52.018;8.542;2024-02-04T07:47:21;8.90;99.90
3055;DHT22;1537;52.018;8.542;2024-02-04T07:50:46;8.90;99.90
3055;DHT22;1537;52.018;8.542;2024-02-04T07:54:13;8.90;99.90
3055;DHT22;1537;52.018;8.542;2024-02-04T07:57:37;8.80;99.90
3055;DHT22;1537;52.018;8.542;2024-02-04T08:01:01;8.80;99.90
3055;DHT22;1537;52.018;8.542;2024-02-04T08:04:25;8.80;99.90
3055;DHT22;1537;52.018;8.542;2024-02-04T08:07:50;8.80;99.90
3055;DHT22;1537;52.018;8.542;2024-02-04T08:11:16;8.80;99.90
3055;DHT22;1537;52.018;8.542;2024-02-04T08:14:40;8.80;99.90
3055;DHT22;1537;52.018;8.542;2024-02-04T08:18:19;8.80;99.90
3055;DHT22;1537;52.018;8.542;2024-02-04T08:21:44;8.80;99.90
3055;DHT22;1537;52.018;8.542;2024-02-04T08:25:23;8.90;99.90
3055;DHT22;1537;52.018;8.542;2024-02-04T08:28:52;8.80;99.90
3055;DHT22;1537;52.018;8.542;2024-02-04T08:32:16;8.80;99.90
3055;DHT22;1537;52.018;8.542;2024-02-04T08:35:42;8.80;99.90
3055;DHT22;1537;52.018;8.542;2024-02-04T08:39:06;8.80;99.90
3055;DHT22;1537;52.018;8.542;2024-02-04T08:42:31;8.70;99.90
3055;DHT22;1537;52.018;8.542;2024-02-04T08:45:55;8.60;99.90
3055;DHT22;1537;52.018;8.542;2024-02-04T08:49:20;8.60;99.90
3055;DHT22;1537;52.018;8.542;2024-02-04T08:52:48;8.60;99.90
3055;DHT22;1537;52.018;8.542;2024-02-04T08:56:12;8.70;99.90
3055;DHT22;1537;52.018;8.542;2024-02-04T08:59:37;8.70;99.90
3055;DHT22;1537;52.018;8.542;2024-02-04T09:03:00;8.80;99.90
3055;DHT22;1537;52.018;8.542;2024-02-04T09:06:24;8.80;99.90
3055;DHT22;1537;52.018;8.542;2024-02-04T09:09:48;8.80;99.90
3055;DHT22;1537;52.018;8.542;2024-02-04T09:13:13;8.90;99.90
3055;DHT22;1537;52.018;8.542;2024-02-04T09:16:39;8.90;99.90
3055;DHT22;1537;52.018;8.542;2024-02-04T09:20:03;8.90;99.90
3055;DHT22;1537;52.018;8.542;2024-02-04T09:23:27;9.00;99.90
3055;DHT22;1537;52.018;8.542;2024-02-04T09:26:51;9.00;99.90
3055;DHT22;1537;52.018;8.542;2024-02-04T09:30:14;9.00;99.90
3055;DHT22;1537;52.018;8.542;2024-02-04T09:33:40;9.10;99.90
3055;DHT22;1537;52.018;8.542;2024-02-04T09:37:04;9.10;99.90
3055;DHT22;1537;52.018;8.542;2024-02-04T09:40:27;9.10;99.90
3055;DHT22;1537;52.018;8.542;2024-02-04T09:43:52;9.20;99.90
3055;DHT22;1537;52.018;8.542;2024-02-04T09:47:16;9.20;99.90
3055;DHT22;1537;52.018;8.542;2024-02-04T09:50:41;9.30;99.90
3055;DHT22;1537;52.018;8.542;2024-02-04T09:54:06;9.30;99.90
3055;DHT22;1537;52.018;8.542;2024-02-04T09:57:32;9.30;99.90
3055;DHT22;1537;52.018;8.542;2024-02-04T10:00:57;9.20;99.90
3055;DHT22;1537;52.018;8.542;2024-02-04T10:04:22;9.30;99.90
3055;DHT22;1537;52.018;8.542;2024-02-04T10:07:48;9.30;99.90
3055;DHT22;1537;52.018;8.542;2024-02-04T10:11:12;9.40;99.90
3055;DHT22;1537;52.018;8.542;2024-02-04T10:14:36;9.40;99.90
3055;DHT22;1537;52.018;8.542;2024-02-04T10:18:03;9.30;99.90
3055;DHT22;1537;52.018;8.542;2024-02-04T10:21:27;9.30;99.90
3055;DHT22;1537;52.018;8.542;2024-02-04T10:24:52;9.20;99.90
3055;DHT22;1537;52.018;8.542;2024-02-04T10:28:16;9.20;99.90
3055;DHT22;1537;52.018;8.542;2024-02-04T10:31:40;9.20;99.90
3055;DHT22;1537;52.018;8.542;2024-02-04T10:35:04;9.30;99.90
3055;DHT22;1537;52.018;8.542;2024-02-04T10:38:28;9.40;99.90
3055;DHT22;1537;52.018;8.542;2024-02-04T10:41:53;9.40;99.90
3055;DHT22;1537;52.018;8.542;2024-02-04T10:45:17;9.40;99.90
3055;DHT22;1537;52.018;8.542;2024-02-04T10:48:42;9.40;99.90
3055;DHT22;1537;52.018;8.542;2024-02-04T10:52:07;9.50;99.90
3055;DHT22;1537;52.018;8.542;2024-02-04T10:55:33;9.50;99.90
3055;DHT22;1537;52.018;8.542;2024-02-04T10:59:04;9.60;99.90
3055;DHT22;1537;52.018;8.542;2024-02-04T11:02:28;9.50;99.90
3055;DHT22;1537;52.018;8.542;2024-02-04T11:05:52;9.60;99.90
3055;DHT22;1537;52.018;8.542;2024-02-04T11:09:16;9.70;99.90
3055;DHT22;1537;52.018;8.542;2024-02-04T11:12:41;9.80;99.90
3055;DHT22;1537;52.018;8.542;2024-02-04T11:16:16;10.00;99.90
3055;DHT22;1537;52.018;8.542;2024-02-04T11:19:53;10.10;99.90
3055;DHT22;1537;52.018;8.542;2024-02-04T11:23:35;10.20;99.90
3055;DHT22;1537;52.018;8.542;2024-02-04T11:27:01;10.20;99.90
3055;DHT22;1537;52.018;8.542;2024-02-04T11:30:24;10.10;99.90
3055;DHT22;1537;52.018;8.542;2024-02-04T11:33:52;10.00;99.90
3055;DHT22;1537;52.018;8.542;2024-02-04T11:37:16;9.90;99.90
3055;DHT22;1537;52.018;8.542;2024-02-04T11:40:41;9.90;99.90
3055;DHT22;1537;52.018;8.542;2024-02-04T11:44:07;9.80;99.90
3055;DHT22;1537;52.018;8.542;2024-02-04T11:47:34;9.80;99.90
3055;DHT22;1537;52.018;8.542;2024-02-04T11:50:59;9.80;99.90
3055;DHT22;1537;52.018;8.542;2024-02-04T11:54:25;9.70;99.90
3055;DHT22;1537;52.018;8.542;2024-02-04T11:57:49;9.70;99.90
3055;DHT22;1537;52.018;8.542;2024-02-04T12:01:13;9.60;99.90
3055;DHT22;1537;52.018;8.542;2024-02-04T12:04:37;9.60;99.90
3055;DHT22;1537;52.018;8.542;2024-02-04T12:08:04;9.60;99.90
3055;DHT22;1537;52.018;8.542;2024-02-04T12:11:28;9.50;99.90
3055;DHT22;1537;52.018;8.542;2024-02-04T12:14:53;9.40;99.90
3055;DHT22;1537;52.018;8.542;2024-02-04T12:18:16;9.40;99.90
3055;DHT22;1537;52.018;8.542;2024-02-04T12:21:44;9.40;99.90
3055;DHT22;1537;52.018;8.542;2024-02-04T12:25:10;9.40;99.90
3055;DHT22;1537;52.018;8.542;2024-02-04T12:28:34;9.40;99.90
3055;DHT22;1537;52.018;8.542;2024-02-04T12:31:58;9.50;99.90
3055;DHT22;1537;52.018;8.542;2024-02-04T12:35:22;9.50;99.90
3055;DHT22;1537;52.018;8.542;2024-02-04T12:38:50;9.50;99.90
3055;DHT22;1537;52.018;8.542;2024-02-04T12:42:16;9.50;99.90
3055;DHT22;1537;52.018;8.542;2024-02-04T12:45:42;9.50;99.90
3055;DHT22;1537;52.018;8.542;2024-02-04T12:49:06;9.50;99.90
3055;DHT22;1537;52.018;8.542;2024-02-04T12:52:30;9.60;99.90
3055;DHT22;1537;52.018;8.542;2024-02-04T12:55:58;9.60;99.90
3055;DHT22;1537;52.018;8.542;2024-02-04T12:59:27;9.50;99.90
3055;DHT22;1537;52.018;8.542;2024-02-04T13:02:51;9.50;99.90
3055;DHT22;1537;52.018;8.542;2024-02-04T13:06:15;9.50;99.90
3055;DHT22;1537;52.018;8.542;2024-02-04T13:09:39;9.50;99.90
3055;DHT22;1537;52.018;8.542;2024-02-04T13:13:04;9.60;99.90
3055;DHT22;1537;52.018;8.542;2024-02-04T13:16:30;9.60;99.90
3055;DHT22;1537;52.018;8.542;2024-02-04T13:19:54;9.60;99.90
3055;DHT22;1537;52.018;8.542;2024-02-04T13:23:18;9.60;99.90
3055;DHT22;1537;52.018;8.542;2024-02-04T13:26:41;9.60;99.90
3055;DHT22;1537;52.018;8.542;2024-02-04T13:30:06;9.50;99.90
3055;DHT22;1537;52.018;8.542;2024-02-04T13:33:36;9.50;99.90
3055;DHT22;1537;52.018;8.542;2024-02-04T13:36:59;9.50;99.90
3055;DHT22;1537;52.018;8.542;2024-02-04T13:40:24;9.60;99.90
3055;DHT22;1537;52.018;8.542;2024-02-04T13:43:47;9.60;99.90
3055;DHT22;1537;52.018;8.542;2024-02-04T13:47:11;9.60;99.90
3055;DHT22;1537;52.018;8.542;2024-02-04T13:50:36;9.60;99.90
3055;DHT22;1537;52.018;8.542;2024-02-04T13:54:00;9.70;99.90
3055;DHT22;1537;52.018;8.542;2024-02-04T13:57:24;9.80;99.90
3055;DHT22;1537;52.018;8.542;2024-02-04T14:00:47;9.80;99.90
3055;DHT22;1537;52.018;8.542;2024-02-04T14:04:11;9.70;99.90
3055;DHT22;1537;52.018;8.542;2024-02-04T14:07:36;9.60;99.90
3055;DHT22;1537;52.018;8.542;2024-02-04T14:11:00;9.50;99.90
3055;DHT22;1537;52.018;8.542;2024-02-04T14:14:24;9.50;99.90
3055;DHT22;1537;52.018;8.542;2024-02-04T14:17:47;9.40;99.90
3055;DHT22;1537;52.018;8.542;2024-02-04T14:21:11;9.40;99.90
3055;DHT22;1537;52.018;8.542;2024-02-04T14:24:37;9.40;99.90
3055;DHT22;1537;52.018;8.542;2024-02-04T14:28:01;9.30;99.90
3055;DHT22;1537;52.018;8.542;2024-02-04T14:31:25;9.20;99.90
3055;DHT22;1537;52.018;8.542;2024-02-04T14:34:49;9.30;99.90
3055;DHT22;1537;52.018;8.542;2024-02-04T14:38:13;9.40;99.90
3055;DHT22;1537;52.018;8.542;2024-02-04T14:41:38;9.40;99.90
3055;DHT22;1537;52.018;8.542;2024-02-04T14:45:02;9.40;99.90
3055;DHT22;1537;52.018;8.542;2024-02-04T14:48:28;9.40;99.90
3055;DHT22;1537;52.018;8.542;2024-02-04T14:51:52;9.40;99.90
3055;DHT22;1537;52.018;8.542;2024-02-04T14:55:15;9.40;99.90
3055;DHT22;1537;52.018;8.542;2024-02-04T14:58:45;9.50;99.90
3055;DHT22;1537;52.018;8.542;2024-02-04T15:02:08;9.40;99.90
3055;DHT22;1537;52.018;8.542;2024-02-04T15:05:32;9.40;99.90
3055;DHT22;1537;52.018;8.542;2024-02-04T15:08:56;9.40;99.90
3055;DHT22;1537;52.018;8.542;2024-02-04T15:12:21;9.40;99.90
3055;DHT22;1537;52.018;8.542;2024-02-04T15:15:47;9.40;99.90
3055;DHT22;1537;52.018;8.542;2024-02-04T15:19:12;9.40;99.90
3055;DHT22;1537;52.018;8.542;2024-02-04T15:22:37;9.40;99.90
3055;DHT22;1537;52.018;8.542;2024-02-04T15:26:02;9.40;99.90
3055;DHT22;1537;52.018;8.542;2024-02-04T15:29:27;9.40;99.90
3055;DHT22;1537;52.018;8.542;2024-02-04T15:32:57;9.40;99.90
3055;DHT22;1537;52.018;8.542;2024-02-04T15:36:21;9.50;99.90
3055;DHT22;1537;52.018;8.542;2024-02-04T15:39:48;9.50;99.90
3055;DHT22;1537;52.018;8.542;2024-02-04T15:43:13;9.40;99.90
3055;DHT22;1537;52.018;8.542;2024-02-04T15:46:38;9.40;99.90
3055;DHT22;1537;52.018;8.542;2024-02-04T15:50:05;9.40;99.90
3055;DHT22;1537;52.018;8.542;2024-02-04T15:53:29;9.40;99.90
3055;DHT22;1537;52.018;8.542;2024-02-04T15:56:58;9.40;99.90
3055;DHT22;1537;52.018;8.542;2024-02-04T16:00:26;9.40;99.90
3055;DHT22;1537;52.018;8.542;2024-02-04T16:03:51;9.40;99.90
3055;DHT22;1537;52.018;8.542;2024-02-04T16:07:20;9.40;99.90
3055;DHT22;1537;52.018;8.542;2024-02-04T16:10:45;9.40;99.90
3055;DHT22;1537;52.018;8.542;2024-02-04T16:14:13;9.40;99.90
3055;DHT22;1537;52.018;8.542;2024-02-04T16:17:38;9.40;99.90
3055;DHT22;1537;52.018;8.542;2024-02-04T16:21:02;9.40;99.90
3055;DHT22;1537;52.018;8.542;2024-02-04T16:24:28;9.30;99.90
3055;DHT22;1537;52.018;8.542;2024-02-04T16:27:51;9.30;99.90
3055;DHT22;1537;52.018;8.542;2024-02-04T16:31:17;9.30;99.90
3055;DHT22;1537;52.018;8.542;2024-02-04T16:34:48;9.30;99.90
3055;DHT22;1537;52.018;8.542;2024-02-04T16:38:12;9.30;99.90
3055;DHT22;1537;52.018;8.542;2024-02-04T16:41:37;9.30;99.90
3055;DHT22;1537;52.018;8.542;2024-02-04T16:45:04;9.30;99.90
3055;DHT22;1537;52.018;8.542;2024-02-04T16:48:28;9.30;99.90
3055;DHT22;1537;52.018;8.542;2024-02-04T16:51:52;9.30;99.90
3055;DHT22;1537;52.018;8.542;2024-02-04T16:55:16;9.40;99.90
3055;DHT22;1537;52.018;8.542;2024-02-04T16:58:41;9.40;99.90
3055;DHT22;1537;52.018;8.542;2024-02-04T17:02:05;9.30;99.90
3055;DHT22;1537;52.018;8.542;2024-02-04T17:05:29;9.30;99.90
3055;DHT22;1537;52.018;8.542;2024-02-04T17:09:07;9.30;99.90
3055;DHT22;1537;52.018;8.542;2024-02-04T17:12:37;9.30;99.90
3055;DHT22;1537;52.018;8.542;2024-02-04T17:16:11;9.30;99.90
3055;DHT22;1537;52.018;8.542;2024-02-04T17:19:43;9.40;99.90
3055;DHT22;1537;52.018;8.542;2024-02-04T17:23:08;9.30;99.90
3055;DHT22;1537;52.018;8.542;2024-02-04T17:26:34;9.30;99.90
3055;DHT22;1537;52.018;8.542;2024-02-04T17:29:59;9.30;99.90
3055;DHT22;1537;52.018;8.542;2024-02-04T17:33:25;9.30;99.90
3055;DHT22;1537;52.018;8.542;2024-02-04T17:36:49;9.40;99.90
3055;DHT22;1537;52.018;8.542;2024-02-04T17:40:17;9.40;99.90
3055;DHT22;1537;52.018;8.542;2024-02-04T17:43:42;9.40;99.90
3055;DHT22;1537;52.018;8.542;2024-02-04T17:47:06;9.40;99.90
3055;DHT22;1537;52.018;8.542;2024-02-04T17:50:30;9.40;99.90
3055;DHT22;1537;52.018;8.542;2024-02-04T17:53:54;9.50;99.90
3055;DHT22;1537;52.018;8.542;2024-02-04T17:57:20;9.50;99.90
3055;DHT22;1537;52.018;8.542;2024-02-04T18:00:44;9.50;99.90
3055;DHT22;1537;52.018;8.542;2024-02-04T18:04:07;9.50;99.90
3055;DHT22;1537;52.018;8.542;2024-02-04T18:07:33;9.60;99.90
3055;DHT22;1537;52.018;8.542;2024-02-04T18:10:57;9.60;99.90
3055;DHT22;1537;52.018;8.542;2024-02-04T18:14:20;9.60;99.90
3055;DHT22;1537;52.018;8.542;2024-02-04T18:17:44;9.60;99.90
3055;DHT22;1537;52.018;8.542;2024-02-04T18:21:17;9.60;99.90
3055;DHT22;1537;52.018;8.542;2024-02-04T18:24:45;9.70;99.90
3055;DHT22;1537;52.018;8.542;2024-02-04T18:28:10;9.70;99.90
3055;DHT22;1537;52.018;8.542;2024-02-04T18:31:33;9.70;99.90
3055;DHT22;1537;52.018;8.542;2024-02-04T18:34:57;9.70;99.90
3055;DHT22;1537;52.018;8.542;2024-02-04T18:38:21;9.70;99.90
3055;DHT22;1537;52.018;8.542;2024-02-04T18:41:46;9.80;99.90
3055;DHT22;1537;52.018;8.542;2024-02-04T18:45:10;9.80;99.90
3055;DHT22;1537;52.018;8.542;2024-02-04T18:48:33;9.80;99.90
3055;DHT22;1537;52.018;8.542;2024-02-04T18:51:57;9.80;99.90
3055;DHT22;1537;52.018;8.542;2024-02-04T18:55:21;9.80;99.90
3055;DHT22;1537;52.018;8.542;2024-02-04T18:58:46;9.80;99.90
3055;DHT22;1537;52.018;8.542;2024-02-04T19:02:13;9.80;99.90
3055;DHT22;1537;52.018;8.542;2024-02-04T19:05:37;9.80;99.90
3055;DHT22;1537;52.018;8.542;2024-02-04T19:09:01;9.80;99.90
3055;DHT22;1537;52.018;8.542;2024-02-04T19:12:29;9.80;99.90
3055;DHT22;1537;52.018;8.542;2024-02-04T19:15:54;9.80;99.90
3055;DHT22;1537;52.018;8.542;2024-02-04T19:19:18;9.90;99.90
3055;DHT22;1537;52.018;8.542;2024-02-04T19:22:42;9.90;99.90
3055;DHT22;1537;52.018;8.542;2024-02-04T19:26:06;9.90;99.90
3055;DHT22;1537;52.018;8.542;2024-02-04T19:29:30;9.90;99.90
3055;DHT22;1537;52.018;8.542;2024-02-04T19:32:56;9.90;99.90
3055;DHT22;1537;52.018;8.542;2024-02-04T19:36:22;9.90;99.90
3055;DHT22;1537;52.018;8.542;2024-02-04T19:39:45;9.90;99.90
3055;DHT22;1537;52.018;8.542;2024-02-04T19:43:09;9.90;99.90
3055;DHT22;1537;52.018;8.542;2024-02-04T19:46:33;9.90;99.90
3055;DHT22;1537;52.018;8.542;2024-02-04T19:49:58;9.90;99.90
3055;DHT22;1537;52.018;8.542;2024-02-04T19:53:22;9.90;99.90
3055;DHT22;1537;52.018;8.542;2024-02-04T19:56:46;9.90;99.90
3055;DHT22;1537;52.018;8.542;2024-02-04T20:00:11;9.90;99.90
3055;DHT22;1537;52.018;8.542;2024-02-04T20:03:35;9.90;99.90
3055;DHT22;1537;52.018;8.542;2024-02-04T20:07:00;9.90;99.90
3055;DHT22;1537;52.018;8.542;2024-02-04T20:10:25;9.90;99.90
3055;DHT22;1537;52.018;8.542;2024-02-04T20:13:49;10.00;99.90
3055;DHT22;1537;52.018;8.542;2024-02-04T20:17:13;10.00;99.90
3055;DHT22;1537;52.018;8.542;2024-02-04T20:20:36;10.00;99.90
3055;DHT22;1537;52.018;8.542;2024-02-04T20:24:01;9.90;99.90
3055;DHT22;1537;52.018;8.542;2024-02-04T20:27:25;10.00;99.90
3055;DHT22;1537;52.018;8.542;2024-02-04T20:30:51;9.90;99.90
3055;DHT22;1537;52.018;8.542;2024-02-04T20:34:15;10.00;99.90
3055;DHT22;1537;52.018;8.542;2024-02-04T20:37:39;10.00;99.90
3055;DHT22;1537;52.018;8.542;2024-02-04T20:41:05;10.00;99.90
3055;DHT22;1537;52.018;8.542;2024-02-04T20:44:29;10.00;99.90
3055;DHT22;1537;52.018;8.542;2024-02-04T20:48:09;10.00;99.90
3055;DHT22;1537;52.018;8.542;2024-02-04T20:52:51;10.00;99.90
3055;DHT22;1537;52.018;8.542;2024-02-04T20:56:56;10.00;99.90
3055;DHT22;1537;52.018;8.542;2024-02-04T21:00:24;10.00;99.90
3055;DHT22;1537;52.018;8.542;2024-02-04T21:03:48;10.00;99.90
3055;DHT22;1537;52.018;8.542;2024-02-04T21:07:13;10.00;99.90
3055;DHT22;1537;52.018;8.542;2024-02-04T21:10:44;10.00;99.90
3055;DHT22;1537;52.018;8.542;2024-02-04T21:14:17;10.00;99.90
3055;DHT22;1537;52.018;8.542;2024-02-04T21:17:43;10.00;99.90
3055;DHT22;1537;52.018;8.542;2024-02-04T21:21:08;10.00;99.90
3055;DHT22;1537;52.018;8.542;2024-02-04T21:24:34;10.00;99.90
3055;DHT22;1537;52.018;8.542;2024-02-04T21:28:01;10.00;99.90
3055;DHT22;1537;52.018;8.542;2024-02-04T21:31:28;10.00;99.90
3055;DHT22;1537;52.018;8.542;2024-02-04T21:35:00;10.00;99.90
3055;DHT22;1537;52.018;8.542;2024-02-04T21:38:32;10.00;99.90
3055;DHT22;1537;52.018;8.542;2024-02-04T21:42:01;10.00;99.90
3055;DHT22;1537;52.018;8.542;2024-02-04T21:45:29;10.00;99.90
3055;DHT22;1537;52.018;8.542;2024-02-04T21:48:54;10.00;99.90
3055;DHT22;1537;52.018;8.542;2024-02-04T21:52:28;10.00;99.90
3055;DHT22;1537;52.018;8.542;2024-02-04T21:55:55;10.10;99.90
3055;DHT22;1537;52.018;8.542;2024-02-04T21:59:20;10.10;99.90
3055;DHT22;1537;52.018;8.542;2024-02-04T22:02:45;10.10;99.90
3055;DHT22;1537;52.018;8.542;2024-02-04T22:06:22;10.00;99.90
3055;DHT22;1537;52.018;8.542;2024-02-04T22:09:50;10.10;99.90
3055;DHT22;1537;52.018;8.542;2024-02-04T22:13:15;10.10;99.90
3055;DHT22;1537;52.018;8.542;2024-02-04T22:16:42;10.10;99.90
3055;DHT22;1537;52.018;8.542;2024-02-04T22:20:12;10.10;99.90
3055;DHT22;1537;52.018;8.542;2024-02-04T22:23:38;10.10;99.90
3055;DHT22;1537;52.018;8.542;2024-02-04T22:27:03;10.10;99.90
3055;DHT22;1537;52.018;8.542;2024-02-04T22:30:27;10.10;99.90
3055;DHT22;1537;52.018;8.542;2024-02-04T22:33:51;10.10;99.90
3055;DHT22;1537;52.018;8.542;2024-02-04T22:37:17;10.10;99.90
3055;DHT22;1537;52.018;8.542;2024-02-04T22:40:44;10.10;99.90
3055;DHT22;1537;52.018;8.542;2024-02-04T22:44:19;10.10;99.90